createdAt,value
2022-12-09T00:00:37.283Z,10.00
2022-12-09T00:03:23.658Z,13.10
2022-12-09T00:05:56.667Z,9.70
2022-12-09T00:08:29.185Z,12.30
2022-12-09T00:11:02.092Z,11.60
2022-12-09T00:13:34.540Z,13.00
2022-12-09T00:16:10.960Z,12.30
2022-12-09T00:18:43.964Z,11.60
2022-12-09T00:21:19.847Z,12.50
2022-12-09T00:23:53.668Z,14.10
2022-12-09T00:26:28.069Z,12.70
2022-12-09T00:29:01.047Z,14.70
2022-12-09T00:31:38.701Z,14.00
2022-12-09T00:34:14.258Z,12.70
2022-12-09T00:36:46.532Z,13.40
2022-12-09T00:39:18.836Z,12.80
2022-12-09T00:41:51.650Z,12.50
2022-12-09T00:44:24.534Z,12.20
2022-12-09T00:46:57.600Z,13.40
2022-12-09T00:49:30.064Z,12.40
2022-12-09T00:52:02.803Z,12.60
2022-12-09T00:54:36.869Z,13.40
2022-12-09T00:57:08.987Z,13.10
2022-12-09T00:59:41.809Z,11.30
2022-12-09T01:02:14.248Z,12.90
2022-12-09T01:04:47.875Z,12.00
2022-12-09T01:07:21.550Z,11.60
2022-12-09T01:09:54.075Z,12.50
2022-12-09T01:12:26.616Z,12.80
2022-12-09T01:14:58.823Z,12.00
2022-12-09T01:17:31.675Z,11.90
2022-12-09T01:20:04.582Z,13.10
2022-12-09T01:22:37.423Z,9.80
2022-12-09T01:25:11.310Z,12.00
2022-12-09T01:27:43.799Z,10.60
2022-12-09T01:30:17.261Z,10.30
2022-12-09T01:32:50.110Z,11.30
2022-12-09T01:35:22.456Z,12.10
2022-12-09T01:37:55.010Z,12.70
2022-12-09T01:40:28.051Z,13.20
2022-12-09T01:43:00.387Z,11.90
2022-12-09T01:45:45.099Z,13.70
2022-12-09T01:48:19.379Z,13.20
2022-12-09T01:50:55.680Z,13.30
2022-12-09T01:53:32.263Z,11.10
2022-12-09T01:56:08.146Z,10.00
2022-12-09T01:58:41.087Z,11.00
2022-12-09T02:01:13.937Z,10.10
2022-12-09T02:03:46.955Z,11.50
2022-12-09T02:06:20.320Z,10.70
2022-12-09T02:08:54.044Z,11.60
2022-12-09T02:11:36.546Z,9.90
2022-12-09T02:14:17.897Z,9.60
2022-12-09T02:17:07.566Z,12.00
2022-12-09T02:19:56.136Z,9.30
2022-12-09T02:22:34.645Z,9.80
2022-12-09T02:25:19.410Z,10.00
2022-12-09T02:28:00.891Z,10.20
2022-12-09T02:30:39.563Z,10.70
2022-12-09T02:33:28.007Z,10.30
2022-12-09T02:36:06.683Z,11.00
2022-12-09T02:38:43.707Z,10.00
2022-12-09T02:41:20.776Z,8.50
2022-12-09T02:43:56.393Z,9.00
2022-12-09T02:46:36.948Z,8.80
2022-12-09T02:49:13.543Z,10.30
2022-12-09T02:51:48.155Z,8.20
2022-12-09T02:54:22.906Z,8.90
2022-12-09T02:59:31.563Z,8.70
2022-12-09T03:02:16.287Z,8.70
2022-12-09T03:05:00.656Z,9.50
2022-12-09T03:07:42.148Z,8.70
2022-12-09T03:10:22.998Z,9.50
2022-12-09T03:13:01.536Z,8.70
2022-12-09T03:15:36.763Z,10.10
2022-12-09T03:18:12.798Z,9.10
2022-12-09T03:20:49.883Z,7.80
2022-12-09T03:23:26.276Z,8.30
2022-12-09T03:26:00.191Z,9.20
2022-12-09T03:28:36.764Z,8.10
2022-12-09T03:31:15.682Z,8.50
2022-12-09T03:33:53.316Z,7.90
2022-12-09T03:36:29.354Z,8.60
2022-12-09T03:39:04.207Z,9.20
2022-12-09T03:41:38.563Z,11.20
2022-12-09T03:44:15.705Z,12.90
2022-12-09T03:46:49.172Z,10.10
2022-12-09T03:49:21.654Z,10.30
2022-12-09T03:52:00.902Z,12.60
2022-12-09T03:54:40.792Z,11.80
2022-12-09T03:57:19.072Z,11.70
2022-12-09T03:59:58.903Z,7.20
2022-12-09T04:02:32.235Z,7.50
2022-12-09T04:05:05.203Z,7.40
2022-12-09T04:07:38.084Z,9.10
2022-12-09T04:10:12.083Z,10.00
2022-12-09T04:12:46.774Z,8.50
2022-12-09T04:15:19.445Z,9.20
2022-12-09T04:17:55.133Z,8.50
2022-12-09T04:20:27.553Z,7.20
2022-12-09T04:23:00.253Z,9.40
2022-12-09T04:25:32.832Z,9.40
2022-12-09T04:28:05.602Z,9.30
2022-12-09T04:30:38.390Z,9.00
2022-12-09T04:33:10.662Z,9.00
2022-12-09T04:35:43.083Z,9.10
2022-12-09T04:38:15.542Z,10.00
2022-12-09T04:40:48.316Z,8.90
2022-12-09T04:43:21.097Z,10.10
2022-12-09T04:45:53.521Z,8.30
2022-12-09T04:48:26.097Z,9.10
2022-12-09T04:50:59.960Z,10.60
2022-12-09T04:53:32.716Z,10.90
2022-12-09T04:56:06.422Z,9.70
2022-12-09T04:58:39.244Z,9.10
2022-12-09T05:01:13.005Z,9.70
2022-12-09T05:03:51.009Z,10.10
2022-12-09T05:06:26.719Z,9.80
2022-12-09T05:08:59.551Z,10.90
2022-12-09T05:11:32.887Z,10.40
2022-12-09T05:14:05.518Z,8.90
2022-12-09T05:16:38.608Z,9.70
2022-12-09T05:19:12.965Z,11.00
2022-12-09T05:21:46.391Z,9.60
2022-12-09T05:24:18.991Z,9.10
2022-12-09T05:26:51.919Z,9.00
2022-12-09T05:29:24.874Z,10.00
2022-12-09T05:31:58.121Z,11.20
2022-12-09T05:34:31.207Z,10.90
2022-12-09T05:37:03.711Z,10.60
2022-12-09T05:39:36.291Z,10.60
2022-12-09T05:42:08.903Z,9.90
2022-12-09T05:44:41.129Z,10.50
2022-12-09T05:47:13.617Z,10.00
2022-12-09T05:49:46.928Z,11.80
2022-12-09T05:52:19.496Z,11.10
2022-12-09T05:54:52.600Z,10.70
2022-12-09T05:57:25.056Z,13.80
2022-12-09T05:59:57.486Z,13.60
2022-12-09T06:02:29.871Z,13.20
2022-12-09T06:05:03.248Z,15.00
2022-12-09T06:07:36.733Z,11.10
2022-12-09T06:10:10.757Z,11.60
2022-12-09T06:12:43.742Z,10.50
2022-12-09T06:15:21.408Z,10.80
2022-12-09T06:17:55.123Z,12.10
2022-12-09T06:20:27.806Z,11.10
2022-12-09T06:23:00.763Z,12.60
2022-12-09T06:25:33.263Z,13.10
2022-12-09T06:28:06.898Z,12.50
2022-12-09T06:30:39.472Z,10.90
2022-12-09T06:33:36.952Z,13.00
2022-12-09T06:36:05.535Z,12.90
2022-12-09T06:38:39.982Z,11.60
2022-12-09T06:41:14.256Z,11.80
2022-12-09T06:43:46.778Z,14.90
2022-12-09T06:46:21.252Z,9.70
2022-12-09T06:48:54.876Z,11.20
2022-12-09T06:51:28.158Z,12.30
2022-12-09T06:54:00.942Z,13.30
2022-12-09T06:56:35.256Z,11.60
2022-12-09T06:59:11.393Z,11.80
2022-12-09T07:01:44.850Z,11.90
2022-12-09T07:04:17.798Z,13.80
2022-12-09T07:06:50.442Z,24.80
2022-12-09T07:09:23.907Z,58.60
2022-12-09T07:11:56.414Z,56.50
2022-12-09T07:14:28.864Z,53.30
2022-12-09T07:17:01.733Z,40.20
2022-12-09T07:19:34.767Z,24.90
2022-12-09T07:22:07.497Z,25.80
2022-12-09T07:24:40.015Z,16.10
2022-12-09T07:27:19.401Z,16.60
2022-12-09T07:29:52.306Z,14.90
2022-12-09T07:32:25.067Z,12.50
2022-12-09T07:34:57.944Z,13.80
2022-12-09T07:37:30.438Z,8.00
2022-12-09T07:40:03.191Z,15.80
2022-12-09T07:42:36.644Z,14.90
2022-12-09T07:45:12.596Z,50.20
2022-12-09T07:47:45.956Z,43.10
2022-12-09T07:50:19.806Z,37.10
2022-12-09T07:52:53.156Z,38.70
2022-12-09T07:55:26.251Z,40.10
2022-12-09T07:57:59.056Z,34.70
2022-12-09T08:00:31.564Z,53.70
2022-12-09T08:03:04.195Z,38.70
2022-12-09T08:05:36.865Z,27.70
2022-12-09T08:08:09.813Z,26.40
2022-12-09T08:10:42.640Z,22.10
2022-12-09T08:13:15.357Z,24.30
2022-12-09T08:15:48.170Z,30.90
2022-12-09T08:18:20.649Z,19.20
2022-12-09T08:20:53.428Z,19.90
2022-12-09T08:23:26.277Z,21.00
2022-12-09T08:25:59.394Z,22.30
2022-12-09T08:28:33.230Z,20.40
2022-12-09T08:31:11.716Z,16.80
2022-12-09T08:33:44.875Z,14.60
2022-12-09T08:36:19.796Z,14.40
2022-12-09T08:38:53.032Z,13.10
2022-12-09T08:41:37.469Z,14.70
2022-12-09T08:44:12.914Z,13.20
2022-12-09T08:46:47.380Z,17.00
2022-12-09T08:49:22.467Z,19.50
2022-12-09T08:51:56.230Z,19.20
2022-12-09T08:54:28.830Z,24.40
2022-12-09T08:57:01.128Z,17.00
2022-12-09T08:59:33.494Z,13.90
2022-12-09T09:02:05.934Z,12.90
2022-12-09T09:04:40.061Z,15.50
2022-12-09T09:07:13.136Z,11.70
2022-12-09T09:09:46.181Z,15.30
2022-12-09T09:12:18.982Z,13.80
2022-12-09T09:14:53.504Z,13.30
2022-12-09T09:17:26.714Z,13.60
2022-12-09T09:19:59.499Z,12.30
2022-12-09T09:22:32.629Z,13.20
2022-12-09T09:25:05.801Z,11.30
2022-12-09T09:27:38.631Z,13.00
2022-12-09T09:30:13.325Z,14.50
2022-12-09T09:32:46.399Z,16.30
2022-12-09T09:35:19.609Z,13.80
2022-12-09T09:37:52.031Z,13.10
2022-12-09T09:40:25.000Z,14.20
2022-12-09T09:42:59.356Z,10.90
2022-12-09T09:45:32.023Z,14.10
2022-12-09T09:48:06.116Z,15.40
2022-12-09T09:50:44.561Z,16.00
2022-12-09T09:53:21.507Z,17.20
2022-12-09T09:56:00.123Z,12.60
2022-12-09T09:58:39.226Z,12.50
2022-12-09T10:01:14.606Z,15.90
2022-12-09T10:03:57.772Z,16.90
2022-12-09T10:06:39.121Z,12.60
2022-12-09T10:09:26.667Z,11.50
2022-12-09T10:12:03.252Z,13.70
2022-12-09T10:14:50.562Z,13.60
2022-12-09T10:17:32.254Z,14.70
2022-12-09T10:20:08.479Z,13.70
2022-12-09T10:22:46.793Z,14.60
2022-12-09T10:25:22.286Z,12.90
2022-12-09T10:27:58.334Z,15.80
2022-12-09T10:30:37.302Z,14.60
2022-12-09T10:33:15.970Z,17.90
2022-12-09T10:35:48.850Z,13.90
2022-12-09T10:38:23.600Z,17.60
2022-12-09T10:41:03.048Z,13.40
2022-12-09T10:43:38.700Z,16.30
2022-12-09T10:46:18.275Z,15.30
2022-12-09T10:49:02.353Z,16.50
2022-12-09T10:51:39.690Z,14.90
2022-12-09T10:54:22.978Z,17.10
2022-12-09T10:57:08.090Z,16.40
2022-12-09T10:59:41.678Z,19.50
2022-12-09T11:02:23.787Z,14.40
2022-12-09T11:04:56.869Z,15.90
2022-12-09T11:07:31.292Z,15.50
2022-12-09T11:10:20.787Z,18.00
2022-12-09T11:12:57.924Z,15.20
2022-12-09T11:15:39.719Z,17.40
2022-12-09T11:18:22.221Z,22.10
2022-12-09T11:21:06.123Z,13.50
2022-12-09T11:23:38.557Z,15.30
2022-12-09T11:26:25.873Z,14.10
2022-12-09T11:29:06.720Z,21.90
2022-12-09T11:31:43.678Z,23.50
2022-12-09T11:34:23.423Z,18.00
2022-12-09T11:36:59.193Z,26.30
2022-12-09T11:39:34.079Z,24.70
2022-12-09T11:42:17.885Z,21.00
2022-12-09T11:44:59.102Z,16.60
2022-12-09T11:47:50.745Z,16.80
2022-12-09T11:50:31.759Z,13.70
2022-12-09T11:53:24.551Z,15.90
2022-12-09T11:56:00.508Z,15.90
2022-12-09T11:58:41.068Z,12.50
2022-12-09T12:01:21.075Z,13.50
2022-12-09T12:03:58.857Z,14.70
2022-12-09T12:06:38.664Z,16.00
2022-12-09T12:09:18.430Z,15.00
2022-12-09T12:11:58.668Z,15.60
2022-12-09T12:14:32.167Z,14.40
2022-12-09T12:17:18.085Z,13.60
2022-12-09T12:19:52.882Z,18.20
2022-12-09T12:22:56.285Z,16.70
2022-12-09T12:25:48.014Z,16.80
2022-12-09T12:28:38.611Z,18.60
2022-12-09T12:31:27.499Z,15.50
2022-12-09T12:34:24.683Z,14.10
2022-12-09T12:37:10.521Z,21.60
2022-12-09T12:39:52.712Z,18.40
2022-12-09T12:42:36.550Z,22.10
2022-12-09T12:45:31.196Z,21.60
2022-12-09T12:48:09.220Z,21.00
2022-12-09T12:50:53.830Z,20.70
2022-12-09T12:53:36.418Z,21.10
2022-12-09T12:56:13.914Z,20.20
2022-12-09T12:58:59.597Z,20.30
2022-12-09T13:01:35.509Z,23.90
2022-12-09T13:04:22.000Z,37.20
2022-12-09T13:07:01.698Z,30.20
2022-12-09T13:09:43.574Z,38.70
2022-12-09T13:12:40.337Z,20.60
2022-12-09T13:15:17.521Z,27.70
2022-12-09T13:17:52.147Z,29.70
2022-12-09T13:20:30.459Z,44.30
2022-12-09T13:23:07.541Z,37.60
2022-12-09T13:25:47.596Z,27.90
2022-12-09T13:28:26.110Z,39.80
2022-12-09T13:31:01.998Z,26.20
2022-12-09T13:33:54.917Z,34.80
2022-12-09T13:36:36.430Z,27.90
2022-12-09T13:39:13.683Z,21.20
2022-12-09T13:42:05.113Z,23.90
2022-12-09T13:44:40.144Z,23.10
2022-12-09T13:47:34.941Z,22.80
2022-12-09T13:50:10.160Z,28.80
2022-12-09T13:52:46.138Z,28.20
2022-12-09T13:55:38.376Z,51.40
2022-12-09T13:58:43.614Z,41.90
2022-12-09T14:01:24.698Z,34.10
2022-12-09T14:04:05.563Z,38.40
2022-12-09T14:06:48.994Z,28.80
2022-12-09T14:09:32.425Z,39.30
2022-12-09T14:12:06.537Z,31.70
2022-12-09T14:14:50.483Z,32.40
2022-12-09T14:18:02.384Z,21.10
2022-12-09T14:20:37.826Z,22.10
2022-12-09T14:23:19.481Z,25.50
2022-12-09T14:26:04.680Z,23.70
2022-12-09T14:28:54.977Z,29.70
2022-12-09T14:31:49.880Z,29.90
2022-12-09T14:34:31.524Z,28.60
2022-12-09T14:37:31.182Z,31.30
2022-12-09T14:40:20.921Z,27.40
2022-12-09T14:43:01.494Z,34.00
2022-12-09T14:45:45.572Z,36.60
2022-12-09T14:48:22.770Z,32.60
2022-12-09T14:53:58.121Z,33.90
2022-12-09T14:56:32.947Z,31.80
2022-12-09T14:59:07.776Z,35.90
2022-12-09T15:01:58.692Z,30.00
2022-12-09T15:04:35.236Z,24.40
2022-12-09T15:07:15.513Z,30.20
2022-12-09T15:09:59.652Z,29.80
2022-12-09T15:12:36.749Z,31.80
2022-12-09T15:15:14.947Z,31.80
2022-12-09T15:17:49.471Z,34.40
2022-12-09T15:20:31.921Z,33.00
2022-12-09T15:23:08.242Z,33.40
2022-12-09T15:25:49.627Z,36.20
2022-12-09T15:28:26.688Z,29.20
2022-12-09T15:31:02.030Z,32.20
2022-12-09T15:33:42.000Z,33.90
2022-12-09T15:36:17.651Z,32.10
2022-12-09T15:38:55.547Z,26.70
2022-12-09T15:41:50.932Z,25.70
2022-12-09T15:44:26.202Z,32.60
2022-12-09T15:47:04.317Z,35.20
2022-12-09T15:49:53.476Z,38.70
2022-12-09T15:52:30.493Z,40.40
2022-12-09T15:55:07.170Z,34.90
2022-12-09T15:57:40.684Z,41.80
2022-12-09T16:00:15.805Z,36.30
2022-12-09T16:02:50.091Z,32.00
2022-12-09T16:05:27.065Z,31.10
2022-12-09T16:08:01.731Z,34.50
2022-12-09T16:10:45.732Z,34.40
2022-12-09T16:13:21.584Z,32.00
2022-12-09T16:15:55.995Z,33.70
2022-12-09T16:18:31.553Z,33.10
2022-12-09T16:21:21.950Z,29.60
2022-12-09T16:23:57.699Z,29.00
2022-12-09T16:26:35.496Z,37.80
2022-12-09T16:29:15.548Z,28.40
2022-12-09T16:31:51.556Z,31.40
2022-12-09T16:34:29.465Z,34.40
2022-12-09T16:37:05.299Z,22.80
2022-12-09T16:39:41.623Z,24.40
2022-12-09T16:42:25.773Z,24.40
2022-12-09T16:45:23.121Z,21.60
2022-12-09T16:47:59.600Z,21.90
2022-12-09T16:50:37.017Z,27.60
2022-12-09T16:53:18.171Z,23.80
2022-12-09T16:55:55.726Z,25.00
2022-12-09T16:58:29.055Z,40.80
2022-12-09T17:01:05.887Z,22.80
2022-12-09T17:03:41.893Z,19.50
2022-12-09T17:06:17.238Z,21.40
2022-12-09T17:08:49.703Z,22.00
2022-12-09T17:11:22.793Z,18.90
2022-12-09T17:13:55.061Z,21.60
2022-12-09T17:16:27.649Z,19.40
2022-12-09T17:19:00.113Z,26.20
2022-12-09T17:21:32.696Z,25.80
2022-12-09T17:24:05.678Z,30.20
2022-12-09T17:26:37.641Z,22.40
2022-12-09T17:29:10.523Z,23.20
2022-12-09T17:31:42.937Z,23.60
2022-12-09T17:34:15.168Z,21.90
2022-12-09T17:36:47.539Z,17.70
2022-12-09T17:39:20.728Z,14.50
2022-12-09T17:41:53.714Z,16.70
2022-12-09T17:44:26.318Z,14.50
2022-12-09T17:46:58.664Z,14.10
2022-12-09T17:49:31.445Z,14.40
2022-12-09T17:52:03.614Z,16.10
2022-12-09T17:54:36.086Z,19.10
2022-12-09T17:57:08.560Z,17.50
2022-12-09T17:59:41.036Z,19.40
2022-12-09T18:02:14.063Z,17.00
2022-12-09T18:04:46.599Z,18.90
2022-12-09T18:07:18.676Z,18.60
2022-12-09T18:09:54.540Z,16.90
2022-12-09T18:12:26.887Z,17.00
2022-12-09T18:14:59.011Z,18.80
2022-12-09T18:17:32.760Z,16.20
2022-12-09T18:20:05.790Z,18.90
2022-12-09T18:22:38.786Z,16.20
2022-12-09T18:25:12.236Z,19.40
2022-12-09T18:27:44.597Z,15.90
2022-12-09T18:30:17.616Z,18.10
2022-12-09T18:32:50.493Z,17.70
2022-12-09T18:35:22.948Z,15.50
2022-12-09T18:37:58.288Z,18.70
2022-12-09T18:40:59.745Z,17.90
2022-12-09T18:43:34.063Z,17.00
2022-12-09T18:46:09.105Z,14.80
2022-12-09T18:48:43.048Z,14.10
2022-12-09T18:51:19.894Z,14.00
2022-12-09T18:53:53.122Z,17.20
2022-12-09T18:56:25.550Z,16.40
2022-12-09T18:59:06.514Z,16.20
2022-12-09T19:01:42.251Z,15.10
2022-12-09T19:04:17.204Z,16.50
2022-12-09T19:06:51.108Z,18.10
2022-12-09T19:09:25.736Z,21.10
2022-12-09T19:12:07.298Z,20.90
2022-12-09T19:14:49.017Z,21.90
2022-12-09T19:17:21.902Z,21.00
2022-12-09T19:19:54.171Z,22.80
2022-12-09T19:22:26.544Z,21.90
2022-12-09T19:24:58.808Z,19.20
2022-12-09T19:27:30.976Z,16.80
2022-12-09T19:30:03.045Z,14.00
2022-12-09T19:32:52.832Z,15.30
2022-12-09T19:35:25.398Z,15.20
2022-12-09T19:38:01.234Z,16.80
2022-12-09T19:40:34.031Z,15.80
2022-12-09T19:43:07.491Z,17.80
2022-12-09T19:45:39.696Z,15.50
2022-12-09T19:48:11.970Z,15.10
2022-12-09T19:50:44.237Z,16.40
2022-12-09T19:53:16.510Z,16.20
2022-12-09T19:55:49.251Z,15.30
2022-12-09T19:58:21.975Z,17.20
2022-12-09T20:00:54.552Z,17.10
2022-12-09T20:03:26.922Z,17.70
2022-12-09T20:06:00.408Z,16.40
2022-12-09T20:08:32.423Z,15.90
2022-12-09T20:11:05.057Z,15.40
2022-12-09T20:13:38.301Z,15.00
2022-12-09T20:16:13.258Z,15.80
2022-12-09T20:18:49.914Z,15.10
2022-12-09T20:21:23.658Z,15.90
2022-12-09T20:23:58.054Z,12.70
2022-12-09T20:26:32.294Z,15.20
2022-12-09T20:29:07.322Z,17.10
2022-12-09T20:31:40.661Z,17.00
2022-12-09T20:34:17.044Z,17.10
2022-12-09T20:36:49.362Z,16.70
2022-12-09T20:39:23.438Z,15.80
2022-12-09T20:41:56.254Z,18.00
2022-12-09T20:44:28.532Z,17.30
2022-12-09T20:47:00.692Z,14.60
2022-12-09T20:49:32.960Z,13.30
2022-12-09T20:52:05.645Z,18.60
2022-12-09T20:54:38.115Z,19.50
2022-12-09T20:57:10.387Z,17.10
2022-12-09T20:59:42.520Z,17.60
2022-12-09T21:02:16.422Z,17.30
2022-12-09T21:04:50.765Z,18.60
2022-12-09T21:07:23.147Z,18.90
2022-12-09T21:09:56.455Z,14.20
2022-12-09T21:12:29.023Z,14.20
2022-12-09T21:15:02.157Z,14.70
2022-12-09T21:17:35.918Z,13.10
2022-12-09T21:20:13.304Z,15.00
2022-12-09T21:22:55.077Z,13.20
2022-12-09T21:25:37.862Z,16.70
2022-12-09T21:28:10.491Z,14.00
2022-12-09T21:30:42.656Z,17.40
2022-12-09T21:33:14.621Z,14.70
2022-12-09T21:35:47.924Z,16.70
2022-12-09T21:38:20.286Z,15.80
2022-12-09T21:40:52.965Z,18.00
2022-12-09T21:43:25.132Z,18.80
2022-12-09T21:45:57.446Z,16.90
2022-12-09T21:48:31.001Z,15.50
2022-12-09T21:51:04.095Z,18.60
2022-12-09T21:53:36.992Z,16.20
2022-12-09T21:56:13.342Z,18.20
2022-12-09T21:58:48.069Z,18.90
2022-12-09T22:01:22.475Z,21.70
2022-12-09T22:03:55.375Z,23.70
2022-12-09T22:06:27.747Z,21.80
2022-12-09T22:09:00.938Z,22.60
2022-12-09T22:11:37.001Z,26.60
2022-12-09T22:14:11.004Z,24.90
2022-12-09T22:16:45.889Z,24.30
2022-12-09T22:19:21.099Z,20.30
2022-12-09T22:21:53.770Z,25.70
2022-12-09T22:24:26.841Z,25.10
2022-12-09T22:26:59.402Z,25.40
2022-12-09T22:29:31.380Z,21.80
2022-12-09T22:32:03.451Z,24.70
2022-12-09T22:34:35.714Z,23.20
2022-12-09T22:37:35.316Z,24.70
2022-12-09T22:40:00.325Z,15.10
2022-12-09T22:42:33.209Z,16.80
2022-12-09T22:45:05.603Z,15.70
2022-12-09T22:47:37.983Z,19.60
2022-12-09T22:50:11.679Z,18.80
2022-12-09T22:52:44.625Z,19.70
2022-12-09T22:55:16.706Z,19.60
2022-12-09T22:57:48.875Z,17.70
2022-12-09T23:00:21.361Z,17.90
2022-12-09T23:02:53.902Z,18.80
2022-12-09T23:05:29.091Z,17.80
2022-12-09T23:08:07.174Z,17.40
2022-12-09T23:10:39.850Z,20.20
2022-12-09T23:13:12.531Z,17.60
2022-12-09T23:15:44.611Z,17.50
2022-12-09T23:18:16.964Z,20.40
2022-12-09T23:20:49.131Z,17.40
2022-12-09T23:23:21.413Z,16.00
2022-12-09T23:25:54.903Z,16.70
2022-12-09T23:28:27.375Z,15.20
2022-12-09T23:31:02.148Z,17.70
2022-12-09T23:33:36.221Z,18.60
2022-12-09T23:36:11.928Z,16.80
2022-12-09T23:38:44.650Z,23.20
2022-12-09T23:41:18.533Z,22.90
2022-12-09T23:43:51.846Z,25.10
2022-12-09T23:46:26.209Z,21.30
2022-12-09T23:49:05.702Z,18.90
2022-12-09T23:51:40.842Z,17.20
2022-12-09T23:54:15.258Z,16.70
2022-12-09T23:56:50.839Z,17.00
2022-12-09T23:59:24.305Z,19.70
